createdAt,value
2022-12-18T00:01:27.000Z,47.45
2022-12-18T00:03:56.665Z,73.15
2022-12-18T00:06:25.799Z,59.67
2022-12-18T00:08:53.588Z,59.72
2022-12-18T00:11:23.582Z,69.93
2022-12-18T00:13:52.424Z,55.45
2022-12-18T00:16:25.258Z,49.78
2022-12-18T00:18:55.709Z,48.80
2022-12-18T00:21:24.142Z,79.70
2022-12-18T00:23:52.642Z,60.78
2022-12-18T00:26:22.169Z,57.42
2022-12-18T00:28:52.526Z,61.17
2022-12-18T00:31:22.269Z,60.13
2022-12-18T00:33:52.689Z,65.45
2022-12-18T00:36:25.258Z,56.33
2022-12-18T00:38:54.878Z,73.85
2022-12-18T00:41:36.847Z,56.83
2022-12-18T00:44:07.179Z,69.43
2022-12-18T00:46:35.439Z,72.97
2022-12-18T00:49:05.247Z,52.72
2022-12-18T00:51:32.991Z,59.63
2022-12-18T00:54:00.860Z,58.83
2022-12-18T00:56:28.631Z,59.65
2022-12-18T00:58:56.498Z,58.40
2022-12-18T01:01:24.433Z,64.78
2022-12-18T01:03:52.227Z,70.80
2022-12-18T01:06:22.737Z,84.93
2022-12-18T01:08:50.587Z,58.88
2022-12-18T01:11:20.207Z,61.35
2022-12-18T01:13:48.345Z,60.92
2022-12-18T01:16:17.944Z,71.05
2022-12-18T01:18:46.205Z,48.47
2022-12-18T01:21:15.624Z,56.42
2022-12-18T01:23:44.743Z,74.50
2022-12-18T01:26:14.651Z,61.75
2022-12-18T01:28:43.194Z,65.65
2022-12-18T01:31:15.904Z,59.63
2022-12-18T01:33:43.806Z,56.00
2022-12-18T01:36:17.942Z,71.95
2022-12-18T01:38:47.942Z,67.30
2022-12-18T01:41:16.839Z,60.88
2022-12-18T01:43:51.619Z,60.22
2022-12-18T01:46:21.860Z,51.90
2022-12-18T01:48:52.159Z,52.55
2022-12-18T01:51:19.983Z,69.38
2022-12-18T01:53:50.373Z,76.80
2022-12-18T01:56:20.654Z,57.65
2022-12-18T01:58:55.803Z,58.00
2022-12-18T02:01:25.158Z,58.30
2022-12-18T02:03:53.587Z,60.45
2022-12-18T02:06:27.830Z,55.10
2022-12-18T02:09:06.717Z,65.57
2022-12-18T02:11:43.167Z,59.88
2022-12-18T02:14:23.050Z,55.65
2022-12-18T02:16:59.282Z,53.95
2022-12-18T02:19:50.387Z,52.45
2022-12-18T02:22:29.089Z,52.55
2022-12-18T02:25:11.275Z,52.40
2022-12-18T02:27:42.414Z,54.72
2022-12-18T02:30:11.123Z,52.08
2022-12-18T02:32:43.488Z,54.85
2022-12-18T02:35:14.979Z,55.10
2022-12-18T02:37:45.876Z,61.65
2022-12-18T02:40:15.884Z,49.38
2022-12-18T02:42:45.062Z,46.22
2022-12-18T02:45:16.400Z,51.17
2022-12-18T02:47:47.913Z,53.70
2022-12-18T02:50:21.795Z,54.47
2022-12-18T02:53:01.707Z,59.40
2022-12-18T02:55:37.916Z,47.85
2022-12-18T02:58:18.119Z,52.30
2022-12-18T03:00:55.730Z,55.53
2022-12-18T03:03:32.332Z,48.40
2022-12-18T03:06:04.319Z,53.67
2022-12-18T03:08:39.218Z,48.95
2022-12-18T03:11:10.098Z,51.38
2022-12-18T03:13:46.591Z,51.03
2022-12-18T03:16:19.906Z,48.03
2022-12-18T03:18:52.223Z,47.30
2022-12-18T03:21:26.356Z,47.08
2022-12-18T03:23:57.898Z,45.47
2022-12-18T03:26:31.204Z,46.53
2022-12-18T03:29:09.322Z,45.70
2022-12-18T03:31:42.111Z,45.85
2022-12-18T03:36:45.117Z,43.00
2022-12-18T03:39:14.475Z,47.45
2022-12-18T03:41:49.714Z,42.35
2022-12-18T03:44:30.412Z,45.05
2022-12-18T03:47:07.244Z,38.08
2022-12-18T03:49:40.212Z,37.30
2022-12-18T03:52:12.831Z,39.67
2022-12-18T03:54:44.162Z,41.95
2022-12-18T03:57:19.067Z,41.10
2022-12-18T03:59:53.132Z,42.63
2022-12-18T04:02:26.573Z,42.72
2022-12-18T04:04:57.830Z,41.30
2022-12-18T04:07:26.167Z,43.58
2022-12-18T04:09:57.838Z,41.35
2022-12-18T04:12:26.974Z,41.72
2022-12-18T04:14:56.235Z,36.78
2022-12-18T04:17:24.764Z,45.60
2022-12-18T04:19:52.951Z,38.50
2022-12-18T04:22:21.445Z,38.30
2022-12-18T04:24:54.273Z,39.30
2022-12-18T04:27:30.468Z,38.28
2022-12-18T04:30:01.379Z,39.40
2022-12-18T04:32:29.191Z,40.60
2022-12-18T04:34:57.033Z,33.17
2022-12-18T04:37:26.685Z,32.72
2022-12-18T04:39:54.447Z,35.08
2022-12-18T04:42:29.700Z,34.85
2022-12-18T04:44:57.425Z,29.55
2022-12-18T04:47:26.558Z,31.90
2022-12-18T04:49:54.328Z,37.70
2022-12-18T04:52:24.758Z,43.13
2022-12-18T04:54:52.458Z,41.40
2022-12-18T04:57:20.225Z,43.33
2022-12-18T04:59:48.027Z,35.72
2022-12-18T05:02:15.907Z,41.95
2022-12-18T05:04:45.069Z,34.20
2022-12-18T05:07:12.765Z,36.13
2022-12-18T05:09:40.606Z,36.75
2022-12-18T05:12:09.615Z,36.75
2022-12-18T05:14:37.398Z,37.47
2022-12-18T05:17:05.103Z,29.95
2022-12-18T05:19:32.859Z,32.72
2022-12-18T05:22:02.351Z,30.40
2022-12-18T05:24:30.074Z,32.78
2022-12-18T05:26:57.845Z,34.90
2022-12-18T05:29:25.886Z,31.77
2022-12-18T05:31:53.710Z,32.63
2022-12-18T05:34:21.508Z,26.45
2022-12-18T05:36:49.243Z,31.45
2022-12-18T05:39:18.382Z,28.13
2022-12-18T05:41:46.132Z,31.08
2022-12-18T05:44:14.634Z,31.50
2022-12-18T05:46:43.721Z,26.90
2022-12-18T05:49:11.519Z,27.50
2022-12-18T05:51:39.263Z,26.90
2022-12-18T05:54:07.195Z,26.02
2022-12-18T05:56:36.495Z,29.83
2022-12-18T05:59:04.292Z,29.88
2022-12-18T06:01:32.081Z,28.80
2022-12-18T06:04:00.358Z,27.45
2022-12-18T06:06:29.509Z,27.48
2022-12-18T06:08:58.853Z,30.00
2022-12-18T06:11:28.383Z,26.92
2022-12-18T06:13:59.457Z,25.17
2022-12-18T06:16:29.914Z,26.85
2022-12-18T06:18:58.619Z,24.45
2022-12-18T06:21:27.672Z,27.42
2022-12-18T06:23:55.539Z,25.63
2022-12-18T06:26:28.080Z,25.52
2022-12-18T06:28:58.072Z,26.90
2022-12-18T06:31:27.149Z,27.60
2022-12-18T06:33:55.012Z,24.40
2022-12-18T06:36:22.755Z,29.30
2022-12-18T06:38:50.718Z,27.00
2022-12-18T06:41:20.404Z,28.33
2022-12-18T06:43:48.237Z,31.50
2022-12-18T06:46:17.508Z,26.52
2022-12-18T06:48:48.319Z,26.90
2022-12-18T06:51:18.517Z,27.10
2022-12-18T06:53:46.288Z,27.38
2022-12-18T06:56:14.128Z,27.27
2022-12-18T06:58:41.950Z,30.77
2022-12-18T07:01:12.140Z,27.38
2022-12-18T07:03:42.814Z,28.77
2022-12-18T07:06:15.944Z,26.88
2022-12-18T07:08:43.960Z,26.20
2022-12-18T07:11:11.733Z,23.75
2022-12-18T07:13:39.907Z,25.75
2022-12-18T07:16:17.096Z,26.42
2022-12-18T07:18:49.431Z,25.95
2022-12-18T07:21:20.136Z,25.58
2022-12-18T07:23:49.248Z,29.05
2022-12-18T07:26:20.178Z,25.63
2022-12-18T07:28:48.104Z,33.03
2022-12-18T07:31:18.303Z,26.00
2022-12-18T07:33:46.889Z,27.48
2022-12-18T07:36:16.763Z,28.02
2022-12-18T07:38:44.980Z,24.35
2022-12-18T07:41:14.731Z,24.73
2022-12-18T07:43:43.601Z,22.52
2022-12-18T07:46:14.621Z,22.13
2022-12-18T07:48:42.867Z,26.55
2022-12-18T07:51:12.465Z,22.27
2022-12-18T07:53:42.684Z,26.45
2022-12-18T07:56:29.903Z,25.95
2022-12-18T07:58:59.175Z,24.15
2022-12-18T08:01:27.511Z,24.08
2022-12-18T08:03:55.547Z,23.00
2022-12-18T08:06:24.187Z,27.27
2022-12-18T08:08:54.633Z,24.50
2022-12-18T08:11:22.824Z,23.52
2022-12-18T08:13:50.791Z,27.00
2022-12-18T08:16:19.293Z,24.40
2022-12-18T08:18:47.870Z,25.75
2022-12-18T08:21:17.788Z,24.95
2022-12-18T08:23:46.572Z,23.85
2022-12-18T08:26:15.862Z,24.33
2022-12-18T08:28:43.656Z,22.60
2022-12-18T08:31:12.323Z,24.33
2022-12-18T08:33:41.659Z,26.38
2022-12-18T08:36:11.912Z,25.77
2022-12-18T08:38:39.702Z,22.63
2022-12-18T08:41:09.175Z,22.83
2022-12-18T08:43:55.787Z,25.05
2022-12-18T08:46:25.771Z,23.25
2022-12-18T08:48:54.711Z,25.60
2022-12-18T08:51:22.596Z,26.77
2022-12-18T08:53:50.424Z,26.65
2022-12-18T08:56:18.703Z,25.38
2022-12-18T08:58:47.870Z,24.50
2022-12-18T09:01:15.961Z,28.35
2022-12-18T09:03:44.348Z,24.02
2022-12-18T09:06:16.631Z,24.00
2022-12-18T09:08:44.956Z,24.13
2022-12-18T09:11:15.778Z,23.88
2022-12-18T09:13:43.637Z,23.95
2022-12-18T09:16:12.902Z,24.92
2022-12-18T09:18:41.107Z,23.60
2022-12-18T09:21:13.845Z,26.27
2022-12-18T09:23:41.983Z,21.17
2022-12-18T09:26:10.005Z,27.20
2022-12-18T09:28:38.422Z,27.73
2022-12-18T09:31:08.790Z,23.73
2022-12-18T09:33:38.039Z,24.05
2022-12-18T09:36:09.089Z,25.50
2022-12-18T09:38:37.880Z,24.30
2022-12-18T09:41:16.683Z,25.30
2022-12-18T09:43:49.335Z,25.35
2022-12-18T09:46:22.053Z,24.33
2022-12-18T09:48:54.255Z,24.80
2022-12-18T09:51:26.919Z,20.92
2022-12-18T09:53:59.508Z,20.42
2022-12-18T09:56:31.302Z,25.77
2022-12-18T09:59:01.420Z,21.65
2022-12-18T10:01:40.223Z,22.77
2022-12-18T10:04:12.679Z,21.42
2022-12-18T10:06:47.341Z,20.33
2022-12-18T10:09:26.987Z,20.52
2022-12-18T10:12:05.077Z,19.10
2022-12-18T10:14:43.476Z,19.27
2022-12-18T10:17:22.702Z,21.45
2022-12-18T10:19:57.188Z,20.70
2022-12-18T10:22:37.122Z,21.27
2022-12-18T10:25:16.435Z,21.60
2022-12-18T10:27:44.287Z,18.38
2022-12-18T10:30:15.892Z,20.33
2022-12-18T10:32:43.972Z,18.10
2022-12-18T10:35:20.648Z,22.00
2022-12-18T10:38:08.297Z,21.67
2022-12-18T10:40:51.069Z,20.33
2022-12-18T10:43:23.975Z,18.77
2022-12-18T10:46:04.850Z,19.45
2022-12-18T10:48:33.838Z,21.50
2022-12-18T10:51:12.821Z,19.08
2022-12-18T10:53:44.463Z,20.70
2022-12-18T10:56:12.656Z,20.17
2022-12-18T10:58:41.460Z,20.92
2022-12-18T11:01:13.113Z,20.73
2022-12-18T11:03:43.170Z,19.20
2022-12-18T11:06:14.425Z,18.13
2022-12-18T11:08:44.673Z,21.00
2022-12-18T11:11:22.436Z,20.40
2022-12-18T11:14:00.759Z,20.45
2022-12-18T11:16:29.908Z,19.08
2022-12-18T11:19:19.671Z,17.50
2022-12-18T11:21:50.160Z,18.13
2022-12-18T11:24:23.084Z,17.73
2022-12-18T11:26:56.246Z,20.92
2022-12-18T11:29:34.167Z,18.90
2022-12-18T11:32:25.041Z,20.23
2022-12-18T11:34:59.258Z,19.48
2022-12-18T11:37:29.752Z,21.10
2022-12-18T11:40:01.818Z,20.63
2022-12-18T11:42:37.451Z,17.77
2022-12-18T11:45:22.744Z,20.73
2022-12-18T11:47:56.227Z,17.80
2022-12-18T11:50:27.434Z,16.60
2022-12-18T11:53:00.343Z,19.55
2022-12-18T11:55:41.364Z,19.45
2022-12-18T11:58:19.510Z,19.33
2022-12-18T12:00:55.052Z,19.10
2022-12-18T12:03:38.953Z,18.58
2022-12-18T12:06:15.607Z,19.33
2022-12-18T12:08:59.598Z,18.85
2022-12-18T12:11:37.076Z,20.67
2022-12-18T12:16:52.336Z,20.00
2022-12-18T12:19:37.174Z,21.75
2022-12-18T12:22:10.936Z,19.15
2022-12-18T12:24:53.439Z,20.70
2022-12-18T12:27:32.428Z,19.52
2022-12-18T12:30:08.457Z,17.65
2022-12-18T12:32:52.032Z,20.55
2022-12-18T12:35:31.702Z,24.27
2022-12-18T12:38:09.013Z,24.50
2022-12-18T12:40:53.852Z,21.80
2022-12-18T12:43:29.681Z,21.67
2022-12-18T12:46:02.048Z,22.13
2022-12-18T12:48:38.022Z,23.70
2022-12-18T12:51:14.466Z,20.73
2022-12-18T12:53:44.486Z,19.52
2022-12-18T12:56:17.585Z,19.85
2022-12-18T12:58:57.578Z,22.88
2022-12-18T13:01:34.659Z,21.00
2022-12-18T13:04:11.004Z,19.73
2022-12-18T13:06:46.654Z,22.08
2022-12-18T13:09:15.101Z,23.73
2022-12-18T13:12:03.222Z,21.70
2022-12-18T13:14:34.614Z,21.02
2022-12-18T13:17:38.920Z,21.55
2022-12-18T13:20:17.375Z,20.15
2022-12-18T13:22:47.887Z,20.58
2022-12-18T13:25:34.466Z,21.50
2022-12-18T13:28:13.635Z,20.05
2022-12-18T13:30:53.725Z,23.50
2022-12-18T13:34:23.945Z,21.83
2022-12-18T13:36:36.402Z,23.05
2022-12-18T13:39:34.765Z,21.38
2022-12-18T13:42:57.000Z,21.05
2022-12-18T13:45:42.431Z,21.58
2022-12-18T13:48:23.959Z,22.55
2022-12-18T13:50:57.157Z,20.00
2022-12-18T13:53:28.573Z,19.17
2022-12-18T13:55:57.098Z,20.73
2022-12-18T13:58:25.008Z,19.92
2022-12-18T14:00:54.222Z,19.58
2022-12-18T14:03:27.098Z,19.95
2022-12-18T14:06:02.100Z,21.33
2022-12-18T14:08:35.813Z,21.88
2022-12-18T14:11:06.368Z,20.83
2022-12-18T14:13:38.648Z,21.25
2022-12-18T14:18:45.940Z,21.17
2022-12-18T14:21:23.842Z,20.05
2022-12-18T14:24:04.684Z,18.45
2022-12-18T14:26:34.213Z,19.92
2022-12-18T14:29:16.375Z,21.30
2022-12-18T14:31:46.414Z,21.00
2022-12-18T14:34:17.691Z,20.75
2022-12-18T14:36:54.850Z,18.90
2022-12-18T14:39:23.133Z,21.42
2022-12-18T14:41:51.695Z,20.27
2022-12-18T14:44:19.562Z,19.92
2022-12-18T14:46:49.908Z,20.15
2022-12-18T14:49:24.437Z,22.42
2022-12-18T14:51:54.232Z,22.80
2022-12-18T14:54:24.904Z,21.10
2022-12-18T14:56:58.875Z,21.85
2022-12-18T14:59:30.152Z,22.08
2022-12-18T15:04:36.592Z,21.88
2022-12-18T15:07:13.610Z,23.50
2022-12-18T15:09:43.196Z,25.08
2022-12-18T15:12:26.626Z,23.58
2022-12-18T15:17:26.131Z,24.23
2022-12-18T15:20:00.504Z,25.40
2022-12-18T15:22:30.488Z,21.23
2022-12-18T15:24:59.992Z,23.48
2022-12-18T15:27:31.608Z,25.60
2022-12-18T15:30:18.996Z,21.73
2022-12-18T15:32:48.730Z,20.17
2022-12-18T15:35:19.634Z,22.35
2022-12-18T15:37:47.709Z,27.02
2022-12-18T15:40:17.467Z,24.25
2022-12-18T15:43:03.913Z,24.45
2022-12-18T15:45:31.844Z,24.83
2022-12-18T15:48:01.803Z,27.88
2022-12-18T15:50:30.124Z,23.95
2022-12-18T15:52:58.688Z,22.92
2022-12-18T15:55:44.117Z,24.70
2022-12-18T15:58:12.966Z,23.48
2022-12-18T16:00:42.467Z,22.00
2022-12-18T16:03:12.183Z,23.80
2022-12-18T16:05:40.230Z,24.73
2022-12-18T16:08:08.101Z,25.23
2022-12-18T16:10:37.185Z,27.98
2022-12-18T16:13:04.939Z,27.65
2022-12-18T16:15:32.700Z,24.48
2022-12-18T16:18:00.484Z,22.83
2022-12-18T16:20:29.589Z,27.02
2022-12-18T16:22:57.400Z,23.45
2022-12-18T16:25:27.433Z,25.35
2022-12-18T16:27:56.158Z,27.75
2022-12-18T16:30:26.427Z,23.70
2022-12-18T16:32:54.299Z,28.15
2022-12-18T16:35:22.227Z,28.10
2022-12-18T16:37:51.569Z,26.38
2022-12-18T16:40:19.867Z,29.88
2022-12-18T16:42:48.531Z,26.75
2022-12-18T16:45:18.551Z,26.63
2022-12-18T16:47:46.587Z,25.58
2022-12-18T16:50:14.645Z,31.58
2022-12-18T16:52:42.726Z,25.02
2022-12-18T16:55:12.080Z,23.55
2022-12-18T16:57:39.831Z,27.13
2022-12-18T17:00:09.101Z,24.05
2022-12-18T17:02:37.613Z,29.15
2022-12-18T17:05:06.437Z,30.15
2022-12-18T17:07:34.367Z,22.33
2022-12-18T17:10:03.576Z,24.95
2022-12-18T17:12:33.848Z,28.25
2022-12-18T17:15:01.607Z,28.55
2022-12-18T17:17:29.409Z,31.55
2022-12-18T17:19:57.213Z,29.08
2022-12-18T17:22:25.020Z,32.70
2022-12-18T17:24:52.811Z,28.08
2022-12-18T17:27:20.622Z,30.20
2022-12-18T17:29:49.711Z,27.90
2022-12-18T17:32:17.516Z,29.30
2022-12-18T17:34:45.460Z,28.60
2022-12-18T17:37:13.300Z,26.63
2022-12-18T17:39:41.024Z,28.77
2022-12-18T17:42:10.654Z,29.98
2022-12-18T17:44:43.069Z,30.42
2022-12-18T17:47:12.978Z,30.85
2022-12-18T17:49:40.936Z,31.40
2022-12-18T17:52:08.766Z,29.48
2022-12-18T17:54:39.442Z,33.47
2022-12-18T17:57:07.374Z,34.05
2022-12-18T17:59:35.123Z,28.85
2022-12-18T18:02:02.987Z,35.10
2022-12-18T18:04:32.231Z,29.05
2022-12-18T18:06:59.997Z,29.15
2022-12-18T18:09:28.519Z,33.97
2022-12-18T18:12:14.779Z,32.05
2022-12-18T18:14:42.568Z,34.35
2022-12-18T18:17:10.416Z,35.42
2022-12-18T18:19:39.559Z,30.70
2022-12-18T18:22:08.287Z,35.67
2022-12-18T18:24:36.064Z,30.20
2022-12-18T18:27:03.956Z,34.15
2022-12-18T18:29:31.901Z,32.92
2022-12-18T18:32:00.071Z,29.77
2022-12-18T18:34:30.246Z,31.20
2022-12-18T18:36:59.504Z,32.47
2022-12-18T18:39:27.828Z,35.75
2022-12-18T18:41:55.693Z,28.65
2022-12-18T18:44:25.635Z,31.50
2022-12-18T18:46:55.407Z,30.60
2022-12-18T18:49:26.999Z,28.25
2022-12-18T18:51:55.493Z,37.10
2022-12-18T18:54:24.650Z,33.10
2022-12-18T18:59:40.493Z,35.03
2022-12-18T19:02:12.340Z,30.77
2022-12-18T19:04:45.545Z,29.17
2022-12-18T19:07:14.562Z,29.00
2022-12-18T19:12:39.723Z,33.22
2022-12-18T19:15:08.913Z,28.00
2022-12-18T19:17:37.391Z,31.23
2022-12-18T19:20:06.539Z,31.15
2022-12-18T19:22:36.103Z,33.08
2022-12-18T19:25:05.717Z,32.83
2022-12-18T19:27:36.447Z,31.75
2022-12-18T19:30:04.812Z,29.27
2022-12-18T19:32:32.637Z,31.55
2022-12-18T19:35:00.566Z,30.75
2022-12-18T19:37:29.180Z,30.58
2022-12-18T19:39:57.421Z,28.52
2022-12-18T19:42:29.368Z,27.92
2022-12-18T19:45:01.172Z,30.38
2022-12-18T19:47:28.938Z,26.83
2022-12-18T19:49:56.717Z,30.63
2022-12-18T19:52:24.500Z,29.58
2022-12-18T19:54:52.816Z,30.02
2022-12-18T19:57:20.844Z,29.52
2022-12-18T19:59:49.980Z,29.73
2022-12-18T20:02:18.954Z,30.83
2022-12-18T20:04:47.062Z,37.95
2022-12-18T20:07:14.790Z,35.00
2022-12-18T20:09:42.592Z,38.95
2022-12-18T20:12:12.182Z,38.42
2022-12-18T20:14:40.099Z,26.52
2022-12-18T20:17:09.286Z,37.88
2022-12-18T20:19:37.432Z,38.90
2022-12-18T20:22:05.907Z,40.15
2022-12-18T20:24:33.681Z,33.92
2022-12-18T20:27:01.471Z,36.78
2022-12-18T20:29:29.366Z,35.20
2022-12-18T20:31:57.181Z,31.77
2022-12-18T20:34:26.333Z,41.28
2022-12-18T20:36:55.119Z,45.20
2022-12-18T20:39:25.127Z,44.03
2022-12-18T20:41:53.750Z,39.42
2022-12-18T20:44:23.903Z,47.88
2022-12-18T20:46:57.404Z,36.53
2022-12-18T20:49:27.605Z,46.65
2022-12-18T20:51:57.556Z,50.13
2022-12-18T20:54:27.323Z,39.63
2022-12-18T20:56:55.526Z,52.72
2022-12-18T20:59:25.505Z,48.08
2022-12-18T21:01:54.048Z,38.58
2022-12-18T21:04:22.978Z,52.58
2022-12-18T21:06:59.212Z,46.28
2022-12-18T21:09:37.709Z,48.22
2022-12-18T21:12:24.455Z,48.08
2022-12-18T21:14:52.368Z,40.65
2022-12-18T21:17:20.115Z,37.50
2022-12-18T21:19:47.939Z,51.97
2022-12-18T21:22:18.022Z,54.58
2022-12-18T21:24:45.892Z,43.58
2022-12-18T21:27:14.245Z,47.08
2022-12-18T21:29:45.690Z,54.60
2022-12-18T21:32:13.987Z,51.58
2022-12-18T21:34:46.211Z,30.95
2022-12-18T21:37:16.307Z,54.45
2022-12-18T21:39:45.460Z,36.83
2022-12-18T21:42:31.092Z,57.85
2022-12-18T21:44:58.999Z,49.47
2022-12-18T21:47:26.762Z,56.75
2022-12-18T21:49:55.183Z,52.50
2022-12-18T21:52:25.699Z,55.35
2022-12-18T21:55:07.830Z,46.35
2022-12-18T21:57:36.881Z,56.67
2022-12-18T22:00:06.107Z,46.38
2022-12-18T22:02:40.222Z,60.90
2022-12-18T22:05:08.990Z,55.70
2022-12-18T22:07:36.796Z,63.22
2022-12-18T22:10:06.484Z,53.60
2022-12-18T22:12:42.921Z,63.85
2022-12-18T22:15:19.214Z,74.03
2022-12-18T22:17:49.882Z,58.33
2022-12-18T22:20:17.888Z,49.63
2022-12-18T22:22:48.072Z,46.83
2022-12-18T22:25:17.318Z,61.40
2022-12-18T22:28:05.158Z,52.78
2022-12-18T22:30:35.152Z,60.42
2022-12-18T22:33:05.001Z,84.18
2022-12-18T22:35:32.822Z,60.15
2022-12-18T22:38:00.811Z,69.30
2022-12-18T22:40:30.247Z,52.88
2022-12-18T22:42:58.292Z,44.25
2022-12-18T22:45:26.859Z,37.67
2022-12-18T22:47:55.068Z,53.60
2022-12-18T22:50:22.864Z,41.65
2022-12-18T22:52:50.636Z,59.78
2022-12-18T22:55:18.472Z,75.35
2022-12-18T22:57:49.182Z,63.83
2022-12-18T23:00:21.961Z,70.30
2022-12-18T23:02:59.443Z,48.13
2022-12-18T23:05:29.062Z,84.30
2022-12-18T23:07:56.857Z,77.97
2022-12-18T23:10:24.604Z,45.22
2022-12-18T23:12:53.675Z,52.53
2022-12-18T23:15:23.526Z,63.10
2022-12-18T23:17:56.857Z,58.30
2022-12-18T23:20:24.862Z,55.17
2022-12-18T23:22:52.878Z,72.07
2022-12-18T23:25:20.627Z,52.17
2022-12-18T23:27:48.403Z,79.38
2022-12-18T23:30:17.745Z,97.43
2022-12-18T23:32:45.514Z,63.10
2022-12-18T23:35:15.532Z,93.70
2022-12-18T23:38:00.222Z,70.45
2022-12-18T23:40:29.776Z,74.03
2022-12-18T23:42:57.686Z,51.95
2022-12-18T23:45:26.768Z,54.13
2022-12-18T23:47:54.548Z,62.15
2022-12-18T23:50:23.764Z,97.15
2022-12-18T23:53:03.272Z,85.28
2022-12-18T23:55:33.420Z,57.95
2022-12-18T23:58:01.176Z,117.35
